sensor_id;sensor_type;location;lat;lon;timestamp;temperature;humidity
16160;DHT22;8185;57.818;15.224;2023-03-14T00:00:52;6.90;99.90
16160;DHT22;8185;57.818;15.224;2023-03-14T00:03:20;7.00;99.90
16160;DHT22;8185;57.818;15.224;2023-03-14T00:05:48;7.00;99.90
16160;DHT22;8185;57.818;15.224;2023-03-14T00:08:15;7.00;99.90
16160;DHT22;8185;57.818;15.224;2023-03-14T00:10:43;7.10;99.90
16160;DHT22;8185;57.818;15.224;2023-03-14T00:13:10;7.00;99.90
16160;DHT22;8185;57.818;15.224;2023-03-14T00:15:38;7.00;99.90
16160;DHT22;8185;57.818;15.224;2023-03-14T00:18:05;7.00;99.90
16160;DHT22;8185;57.818;15.224;2023-03-14T00:20:33;7.00;99.90
16160;DHT22;8185;57.818;15.224;2023-03-14T00:23:00;7.00;99.90
16160;DHT22;8185;57.818;15.224;2023-03-14T00:25:28;6.90;99.90
16160;DHT22;8185;57.818;15.224;2023-03-14T00:27:55;6.90;99.90
16160;DHT22;8185;57.818;15.224;2023-03-14T00:30:22;6.90;99.90
16160;DHT22;8185;57.818;15.224;2023-03-14T00:32:49;6.80;99.90
16160;DHT22;8185;57.818;15.224;2023-03-14T00:35:17;6.80;99.90
16160;DHT22;8185;57.818;15.224;2023-03-14T00:37:45;6.90;99.90
16160;DHT22;8185;57.818;15.224;2023-03-14T00:40:13;6.90;99.90
16160;DHT22;8185;57.818;15.224;2023-03-14T00:42:40;6.80;99.90
16160;DHT22;8185;57.818;15.224;2023-03-14T00:45:08;6.80;99.90
16160;DHT22;8185;57.818;15.224;2023-03-14T00:47:35;6.80;99.90
16160;DHT22;8185;57.818;15.224;2023-03-14T00:50:03;6.80;99.90
16160;DHT22;8185;57.818;15.224;2023-03-14T00:52:30;6.90;99.90
16160;DHT22;8185;57.818;15.224;2023-03-14T00:54:58;6.80;99.90
16160;DHT22;8185;57.818;15.224;2023-03-14T00:57:25;6.80;99.90
16160;DHT22;8185;57.818;15.224;2023-03-14T00:59:53;6.80;99.90
16160;DHT22;8185;57.818;15.224;2023-03-14T01:02:20;6.80;99.90
16160;DHT22;8185;57.818;15.224;2023-03-14T01:04:47;6.90;99.90
16160;DHT22;8185;57.818;15.224;2023-03-14T01:07:15;6.80;99.90
16160;DHT22;8185;57.818;15.224;2023-03-14T01:09:42;6.80;99.90
16160;DHT22;8185;57.818;15.224;2023-03-14T01:12:11;6.80;99.90
16160;DHT22;8185;57.818;15.224;2023-03-14T01:14:38;6.80;99.90
16160;DHT22;8185;57.818;15.224;2023-03-14T01:17:05;6.80;99.90
16160;DHT22;8185;57.818;15.224;2023-03-14T01:19:32;6.70;99.90
16160;DHT22;8185;57.818;15.224;2023-03-14T01:21:59;6.60;99.90
16160;DHT22;8185;57.818;15.224;2023-03-14T01:24:27;6.70;99.90
16160;DHT22;8185;57.818;15.224;2023-03-14T01:26:54;6.60;99.90
16160;DHT22;8185;57.818;15.224;2023-03-14T01:29:23;6.70;99.90
16160;DHT22;8185;57.818;15.224;2023-03-14T01:31:50;6.70;99.90
16160;DHT22;8185;57.818;15.224;2023-03-14T01:34:17;6.70;99.90
16160;DHT22;8185;57.818;15.224;2023-03-14T01:36:44;6.70;99.90
16160;DHT22;8185;57.818;15.224;2023-03-14T01:39:11;6.80;99.90
16160;DHT22;8185;57.818;15.224;2023-03-14T01:41:39;6.80;99.90
16160;DHT22;8185;57.818;15.224;2023-03-14T01:44:10;6.80;99.90
16160;DHT22;8185;57.818;15.224;2023-03-14T01:46:40;6.80;99.90
16160;DHT22;8185;57.818;15.224;2023-03-14T01:49:13;6.80;99.90
16160;DHT22;8185;57.818;15.224;2023-03-14T01:51:46;6.80;99.90
16160;DHT22;8185;57.818;15.224;2023-03-14T01:54:19;6.70;99.90
16160;DHT22;8185;57.818;15.224;2023-03-14T01:56:51;6.70;99.90
16160;DHT22;8185;57.818;15.224;2023-03-14T01:59:19;6.80;99.90
16160;DHT22;8185;57.818;15.224;2023-03-14T02:01:50;6.80;99.90
16160;DHT22;8185;57.818;15.224;2023-03-14T02:04:18;6.80;99.90
16160;DHT22;8185;57.818;15.224;2023-03-14T02:06:50;6.80;99.90
16160;DHT22;8185;57.818;15.224;2023-03-14T02:09:18;6.80;99.90
16160;DHT22;8185;57.818;15.224;2023-03-14T02:11:46;6.70;99.90
16160;DHT22;8185;57.818;15.224;2023-03-14T02:14:20;6.80;99.90
16160;DHT22;8185;57.818;15.224;2023-03-14T02:16:51;6.70;99.90
16160;DHT22;8185;57.818;15.224;2023-03-14T02:19:23;6.70;99.90
16160;DHT22;8185;57.818;15.224;2023-03-14T02:21:56;6.70;99.90
16160;DHT22;8185;57.818;15.224;2023-03-14T02:24:33;6.60;99.90
16160;DHT22;8185;57.818;15.224;2023-03-14T02:27:07;6.60;99.90
16160;DHT22;8185;57.818;15.224;2023-03-14T02:29:36;6.70;99.90
16160;DHT22;8185;57.818;15.224;2023-03-14T02:32:05;6.70;99.90
16160;DHT22;8185;57.818;15.224;2023-03-14T02:34:33;6.70;99.90
16160;DHT22;8185;57.818;15.224;2023-03-14T02:37:03;6.60;99.90
16160;DHT22;8185;57.818;15.224;2023-03-14T02:39:35;6.60;99.90
16160;DHT22;8185;57.818;15.224;2023-03-14T02:42:05;6.60;99.90
16160;DHT22;8185;57.818;15.224;2023-03-14T02:44:32;6.60;99.90
16160;DHT22;8185;57.818;15.224;2023-03-14T02:47:03;6.60;99.90
16160;DHT22;8185;57.818;15.224;2023-03-14T02:49:32;6.70;99.90
16160;DHT22;8185;57.818;15.224;2023-03-14T02:52:00;6.60;99.90
16160;DHT22;8185;57.818;15.224;2023-03-14T02:54:28;6.60;99.90
16160;DHT22;8185;57.818;15.224;2023-03-14T02:56:55;6.70;99.90
16160;DHT22;8185;57.818;15.224;2023-03-14T02:59:23;6.60;99.90
16160;DHT22;8185;57.818;15.224;2023-03-14T03:01:50;6.60;99.90
16160;DHT22;8185;57.818;15.224;2023-03-14T03:04:18;6.60;99.90
16160;DHT22;8185;57.818;15.224;2023-03-14T03:06:45;6.50;99.90
16160;DHT22;8185;57.818;15.224;2023-03-14T03:09:12;6.60;99.90
16160;DHT22;8185;57.818;15.224;2023-03-14T03:11:39;6.60;99.90
16160;DHT22;8185;57.818;15.224;2023-03-14T03:14:06;6.60;99.90
16160;DHT22;8185;57.818;15.224;2023-03-14T03:16:35;6.60;99.90
16160;DHT22;8185;57.818;15.224;2023-03-14T03:19:02;6.70;99.90
16160;DHT22;8185;57.818;15.224;2023-03-14T03:21:29;6.60;99.90
16160;DHT22;8185;57.818;15.224;2023-03-14T03:23:56;6.60;99.90
16160;DHT22;8185;57.818;15.224;2023-03-14T03:26:23;6.60;99.90
16160;DHT22;8185;57.818;15.224;2023-03-14T03:28:51;6.70;99.90
16160;DHT22;8185;57.818;15.224;2023-03-14T03:31:18;6.70;99.90
16160;DHT22;8185;57.818;15.224;2023-03-14T03:33:47;6.70;99.90
16160;DHT22;8185;57.818;15.224;2023-03-14T03:36:14;6.70;99.90
16160;DHT22;8185;57.818;15.224;2023-03-14T03:38:41;6.70;99.90
16160;DHT22;8185;57.818;15.224;2023-03-14T03:41:08;6.70;99.90
16160;DHT22;8185;57.818;15.224;2023-03-14T03:43:35;6.70;99.90
16160;DHT22;8185;57.818;15.224;2023-03-14T03:46:03;6.60;99.90
16160;DHT22;8185;57.818;15.224;2023-03-14T03:48:31;6.60;99.90
16160;DHT22;8185;57.818;15.224;2023-03-14T03:50:59;6.70;99.90
16160;DHT22;8185;57.818;15.224;2023-03-14T03:53:27;6.60;99.90
16160;DHT22;8185;57.818;15.224;2023-03-14T03:55:54;6.60;99.90
16160;DHT22;8185;57.818;15.224;2023-03-14T03:58:21;6.60;99.90
16160;DHT22;8185;57.818;15.224;2023-03-14T04:00:49;6.60;99.90
16160;DHT22;8185;57.818;15.224;2023-03-14T04:03:16;6.60;99.90
16160;DHT22;8185;57.818;15.224;2023-03-14T04:05:43;6.60;99.90
16160;DHT22;8185;57.818;15.224;2023-03-14T04:08:11;6.60;99.90
16160;DHT22;8185;57.818;15.224;2023-03-14T04:10:39;6.60;99.90
16160;DHT22;8185;57.818;15.224;2023-03-14T04:13:06;6.60;99.90
16160;DHT22;8185;57.818;15.224;2023-03-14T04:15:33;6.50;99.90
16160;DHT22;8185;57.818;15.224;2023-03-14T04:18:00;6.50;99.90
16160;DHT22;8185;57.818;15.224;2023-03-14T04:20:27;6.60;99.90
16160;DHT22;8185;57.818;15.224;2023-03-14T04:22:54;6.50;99.90
16160;DHT22;8185;57.818;15.224;2023-03-14T04:25:23;6.50;99.90
16160;DHT22;8185;57.818;15.224;2023-03-14T04:27:50;6.60;99.90
16160;DHT22;8185;57.818;15.224;2023-03-14T04:30:17;6.60;99.90
16160;DHT22;8185;57.818;15.224;2023-03-14T04:32:44;6.50;99.90
16160;DHT22;8185;57.818;15.224;2023-03-14T04:35:12;6.50;99.90
16160;DHT22;8185;57.818;15.224;2023-03-14T04:37:39;6.50;99.90
16160;DHT22;8185;57.818;15.224;2023-03-14T04:40:08;6.50;99.90
16160;DHT22;8185;57.818;15.224;2023-03-14T04:42:37;6.40;99.90
16160;DHT22;8185;57.818;15.224;2023-03-14T04:45:05;6.50;99.90
16160;DHT22;8185;57.818;15.224;2023-03-14T04:47:33;6.40;99.90
16160;DHT22;8185;57.818;15.224;2023-03-14T04:50:00;6.40;99.90
16160;DHT22;8185;57.818;15.224;2023-03-14T04:52:27;6.40;99.90
16160;DHT22;8185;57.818;15.224;2023-03-14T04:54:54;6.40;99.90
16160;DHT22;8185;57.818;15.224;2023-03-14T04:57:21;6.40;99.90
16160;DHT22;8185;57.818;15.224;2023-03-14T04:59:50;6.40;99.90
16160;DHT22;8185;57.818;15.224;2023-03-14T05:02:17;6.40;99.90
16160;DHT22;8185;57.818;15.224;2023-03-14T05:04:44;6.40;99.90
16160;DHT22;8185;57.818;15.224;2023-03-14T05:07:11;6.40;99.90
16160;DHT22;8185;57.818;15.224;2023-03-14T05:09:38;6.50;99.90
16160;DHT22;8185;57.818;15.224;2023-03-14T05:12:06;6.40;99.90
16160;DHT22;8185;57.818;15.224;2023-03-14T05:14:34;6.50;99.90
16160;DHT22;8185;57.818;15.224;2023-03-14T05:17:02;6.50;99.90
16160;DHT22;8185;57.818;15.224;2023-03-14T05:19:29;6.50;99.90
16160;DHT22;8185;57.818;15.224;2023-03-14T05:21:57;6.50;99.90
16160;DHT22;8185;57.818;15.224;2023-03-14T05:24:24;6.50;99.90
16160;DHT22;8185;57.818;15.224;2023-03-14T05:26:51;6.50;99.90
16160;DHT22;8185;57.818;15.224;2023-03-14T05:29:18;6.50;99.90
16160;DHT22;8185;57.818;15.224;2023-03-14T05:31:45;6.50;99.90
16160;DHT22;8185;57.818;15.224;2023-03-14T05:34:14;6.50;99.90
16160;DHT22;8185;57.818;15.224;2023-03-14T05:36:41;6.50;99.90
16160;DHT22;8185;57.818;15.224;2023-03-14T05:39:08;6.50;99.90
16160;DHT22;8185;57.818;15.224;2023-03-14T05:41:35;6.50;99.90
16160;DHT22;8185;57.818;15.224;2023-03-14T05:44:02;6.50;99.90
16160;DHT22;8185;57.818;15.224;2023-03-14T05:46:30;6.50;99.90
16160;DHT22;8185;57.818;15.224;2023-03-14T05:48:57;6.50;99.90
16160;DHT22;8185;57.818;15.224;2023-03-14T05:51:26;6.50;99.90
16160;DHT22;8185;57.818;15.224;2023-03-14T05:53:53;6.50;99.90
16160;DHT22;8185;57.818;15.224;2023-03-14T05:56:20;6.50;99.90
16160;DHT22;8185;57.818;15.224;2023-03-14T05:58:48;6.50;99.90
16160;DHT22;8185;57.818;15.224;2023-03-14T06:01:15;6.50;99.90
16160;DHT22;8185;57.818;15.224;2023-03-14T06:03:43;6.50;99.90
16160;DHT22;8185;57.818;15.224;2023-03-14T06:06:10;6.60;99.90
16160;DHT22;8185;57.818;15.224;2023-03-14T06:08:39;6.50;99.90
16160;DHT22;8185;57.818;15.224;2023-03-14T06:11:06;6.60;99.90
16160;DHT22;8185;57.818;15.224;2023-03-14T06:13:34;6.60;99.90
16160;DHT22;8185;57.818;15.224;2023-03-14T06:16:01;6.60;99.90
16160;DHT22;8185;57.818;15.224;2023-03-14T06:18:28;6.70;99.90
16160;DHT22;8185;57.818;15.224;2023-03-14T06:20:56;6.60;99.90
16160;DHT22;8185;57.818;15.224;2023-03-14T06:23:24;6.70;99.90
16160;DHT22;8185;57.818;15.224;2023-03-14T06:25:53;6.70;99.90
16160;DHT22;8185;57.818;15.224;2023-03-14T06:28:20;6.70;99.90
16160;DHT22;8185;57.818;15.224;2023-03-14T06:30:47;6.70;99.90
16160;DHT22;8185;57.818;15.224;2023-03-14T06:33:14;6.70;99.90
16160;DHT22;8185;57.818;15.224;2023-03-14T06:35:41;6.70;99.90
16160;DHT22;8185;57.818;15.224;2023-03-14T06:38:08;6.70;99.90
16160;DHT22;8185;57.818;15.224;2023-03-14T06:40:35;6.70;99.90
16160;DHT22;8185;57.818;15.224;2023-03-14T06:43:04;6.80;99.90
16160;DHT22;8185;57.818;15.224;2023-03-14T06:45:31;6.80;99.90
16160;DHT22;8185;57.818;15.224;2023-03-14T06:47:58;6.80;99.90
16160;DHT22;8185;57.818;15.224;2023-03-14T06:50:26;6.80;99.90
16160;DHT22;8185;57.818;15.224;2023-03-14T06:52:53;6.80;99.90
16160;DHT22;8185;57.818;15.224;2023-03-14T06:55:21;6.80;99.90
16160;DHT22;8185;57.818;15.224;2023-03-14T06:57:48;6.90;99.90
16160;DHT22;8185;57.818;15.224;2023-03-14T07:00:17;6.90;99.90
16160;DHT22;8185;57.818;15.224;2023-03-14T07:02:44;7.00;99.90
16160;DHT22;8185;57.818;15.224;2023-03-14T07:05:12;7.10;99.90
16160;DHT22;8185;57.818;15.224;2023-03-14T07:07:39;7.00;99.90
16160;DHT22;8185;57.818;15.224;2023-03-14T07:10:07;7.10;99.90
16160;DHT22;8185;57.818;15.224;2023-03-14T07:12:34;7.10;99.90
16160;DHT22;8185;57.818;15.224;2023-03-14T07:15:01;7.10;99.90
16160;DHT22;8185;57.818;15.224;2023-03-14T07:17:30;7.20;99.90
16160;DHT22;8185;57.818;15.224;2023-03-14T07:19:57;7.10;99.90
16160;DHT22;8185;57.818;15.224;2023-03-14T07:22:24;7.10;99.90
16160;DHT22;8185;57.818;15.224;2023-03-14T07:24:52;7.10;99.90
16160;DHT22;8185;57.818;15.224;2023-03-14T07:27:19;7.20;99.90
16160;DHT22;8185;57.818;15.224;2023-03-14T07:29:46;7.30;99.90
16160;DHT22;8185;57.818;15.224;2023-03-14T07:32:13;7.30;99.90
16160;DHT22;8185;57.818;15.224;2023-03-14T07:34:42;7.30;99.90
16160;DHT22;8185;57.818;15.224;2023-03-14T07:37:10;7.30;99.90
16160;DHT22;8185;57.818;15.224;2023-03-14T07:39:37;7.30;99.90
16160;DHT22;8185;57.818;15.224;2023-03-14T07:42:04;7.20;99.90
16160;DHT22;8185;57.818;15.224;2023-03-14T07:44:32;7.20;99.90
16160;DHT22;8185;57.818;15.224;2023-03-14T07:46:59;7.20;99.90
16160;DHT22;8185;57.818;15.224;2023-03-14T07:49:26;7.20;99.90
16160;DHT22;8185;57.818;15.224;2023-03-14T07:51:55;7.20;99.90
16160;DHT22;8185;57.818;15.224;2023-03-14T07:54:22;7.20;99.90
16160;DHT22;8185;57.818;15.224;2023-03-14T07:56:50;7.20;99.90
16160;DHT22;8185;57.818;15.224;2023-03-14T07:59:17;7.20;99.90
16160;DHT22;8185;57.818;15.224;2023-03-14T08:01:44;7.20;99.90
16160;DHT22;8185;57.818;15.224;2023-03-14T08:04:12;7.30;99.90
16160;DHT22;8185;57.818;15.224;2023-03-14T08:06:39;7.30;99.90
16160;DHT22;8185;57.818;15.224;2023-03-14T08:09:07;7.40;99.90
16160;DHT22;8185;57.818;15.224;2023-03-14T08:11:34;7.40;99.90
16160;DHT22;8185;57.818;15.224;2023-03-14T08:14:01;7.30;99.90
16160;DHT22;8185;57.818;15.224;2023-03-14T08:16:28;7.30;99.90
16160;DHT22;8185;57.818;15.224;2023-03-14T08:18:56;7.30;99.90
16160;DHT22;8185;57.818;15.224;2023-03-14T08:21:23;7.30;99.90
16160;DHT22;8185;57.818;15.224;2023-03-14T08:23:50;7.40;99.90
16160;DHT22;8185;57.818;15.224;2023-03-14T08:26:18;7.40;99.90
16160;DHT22;8185;57.818;15.224;2023-03-14T08:28:45;7.50;99.90
16160;DHT22;8185;57.818;15.224;2023-03-14T08:31:13;7.50;99.90
16160;DHT22;8185;57.818;15.224;2023-03-14T08:33:40;7.60;99.90
16160;DHT22;8185;57.818;15.224;2023-03-14T08:36:07;7.60;99.90
16160;DHT22;8185;57.818;15.224;2023-03-14T08:38:35;7.60;99.90
16160;DHT22;8185;57.818;15.224;2023-03-14T08:41:02;7.50;99.90
16160;DHT22;8185;57.818;15.224;2023-03-14T08:43:32;7.50;99.90
16160;DHT22;8185;57.818;15.224;2023-03-14T08:46:00;7.60;99.90
16160;DHT22;8185;57.818;15.224;2023-03-14T08:48:27;7.60;99.90
16160;DHT22;8185;57.818;15.224;2023-03-14T08:50:56;7.60;99.90
16160;DHT22;8185;57.818;15.224;2023-03-14T08:53:23;7.60;99.90
16160;DHT22;8185;57.818;15.224;2023-03-14T08:55:54;7.50;99.90
16160;DHT22;8185;57.818;15.224;2023-03-14T08:58:21;7.50;99.90
16160;DHT22;8185;57.818;15.224;2023-03-14T09:00:50;7.40;99.90
16160;DHT22;8185;57.818;15.224;2023-03-14T09:03:18;7.40;99.90
16160;DHT22;8185;57.818;15.224;2023-03-14T09:05:45;7.50;99.90
16160;DHT22;8185;57.818;15.224;2023-03-14T09:08:12;7.50;99.90
16160;DHT22;8185;57.818;15.224;2023-03-14T09:10:39;7.50;99.90
16160;DHT22;8185;57.818;15.224;2023-03-14T09:13:06;7.40;99.90
16160;DHT22;8185;57.818;15.224;2023-03-14T09:15:33;7.30;99.90
16160;DHT22;8185;57.818;15.224;2023-03-14T09:18:02;7.30;99.90
16160;DHT22;8185;57.818;15.224;2023-03-14T09:20:29;7.40;99.90
16160;DHT22;8185;57.818;15.224;2023-03-14T09:22:56;7.30;99.90
16160;DHT22;8185;57.818;15.224;2023-03-14T09:25:23;7.40;99.90
16160;DHT22;8185;57.818;15.224;2023-03-14T09:27:50;7.40;99.90
16160;DHT22;8185;57.818;15.224;2023-03-14T09:30:17;7.30;99.90
16160;DHT22;8185;57.818;15.224;2023-03-14T09:32:45;7.30;99.90
16160;DHT22;8185;57.818;15.224;2023-03-14T09:35:13;7.30;99.90
16160;DHT22;8185;57.818;15.224;2023-03-14T09:37:40;7.20;99.90
16160;DHT22;8185;57.818;15.224;2023-03-14T09:40:12;7.20;99.90
16160;DHT22;8185;57.818;15.224;2023-03-14T09:42:40;7.20;99.90
16160;DHT22;8185;57.818;15.224;2023-03-14T09:45:12;7.00;99.90
16160;DHT22;8185;57.818;15.224;2023-03-14T09:47:41;6.80;99.90
16160;DHT22;8185;57.818;15.224;2023-03-14T09:50:14;6.80;99.90
16160;DHT22;8185;57.818;15.224;2023-03-14T09:52:45;6.60;99.90
16160;DHT22;8185;57.818;15.224;2023-03-14T09:55:14;6.40;99.90
16160;DHT22;8185;57.818;15.224;2023-03-14T09:57:43;6.30;99.90
16160;DHT22;8185;57.818;15.224;2023-03-14T10:00:16;6.30;99.90
16160;DHT22;8185;57.818;15.224;2023-03-14T10:02:51;6.30;99.90
16160;DHT22;8185;57.818;15.224;2023-03-14T10:05:22;6.30;99.90
16160;DHT22;8185;57.818;15.224;2023-03-14T10:07:50;6.30;99.90
16160;DHT22;8185;57.818;15.224;2023-03-14T10:10:19;6.30;99.90
16160;DHT22;8185;57.818;15.224;2023-03-14T10:12:55;6.30;99.90
16160;DHT22;8185;57.818;15.224;2023-03-14T10:15:26;6.30;99.90
16160;DHT22;8185;57.818;15.224;2023-03-14T10:17:53;6.40;99.90
16160;DHT22;8185;57.818;15.224;2023-03-14T10:20:31;6.40;99.90
16160;DHT22;8185;57.818;15.224;2023-03-14T10:23:00;6.40;99.90
16160;DHT22;8185;57.818;15.224;2023-03-14T10:25:29;6.40;99.90
16160;DHT22;8185;57.818;15.224;2023-03-14T10:27:56;6.40;99.90
16160;DHT22;8185;57.818;15.224;2023-03-14T10:30:33;6.30;99.90
16160;DHT22;8185;57.818;15.224;2023-03-14T10:33:11;6.30;99.90
16160;DHT22;8185;57.818;15.224;2023-03-14T10:35:40;6.30;99.90
16160;DHT22;8185;57.818;15.224;2023-03-14T10:38:13;6.30;99.90
16160;DHT22;8185;57.818;15.224;2023-03-14T10:40:45;6.30;99.90
16160;DHT22;8185;57.818;15.224;2023-03-14T10:43:18;6.30;99.90
16160;DHT22;8185;57.818;15.224;2023-03-14T10:45:52;6.30;99.90
16160;DHT22;8185;57.818;15.224;2023-03-14T10:48:35;6.20;99.90
16160;DHT22;8185;57.818;15.224;2023-03-14T10:51:06;6.20;99.90
16160;DHT22;8185;57.818;15.224;2023-03-14T10:53:40;6.10;99.90
16160;DHT22;8185;57.818;15.224;2023-03-14T10:56:12;6.10;99.90
16160;DHT22;8185;57.818;15.224;2023-03-14T10:58:42;6.00;99.90
16160;DHT22;8185;57.818;15.224;2023-03-14T11:04:04;6.00;99.90
16160;DHT22;8185;57.818;15.224;2023-03-14T11:06:41;6.00;99.90
16160;DHT22;8185;57.818;15.224;2023-03-14T11:09:18;6.00;99.90
16160;DHT22;8185;57.818;15.224;2023-03-14T11:11:48;5.90;99.90
16160;DHT22;8185;57.818;15.224;2023-03-14T11:14:21;6.00;99.90
16160;DHT22;8185;57.818;15.224;2023-03-14T11:16:57;5.90;99.90
16160;DHT22;8185;57.818;15.224;2023-03-14T11:19:47;5.90;99.90
16160;DHT22;8185;57.818;15.224;2023-03-14T11:22:25;6.00;99.90
16160;DHT22;8185;57.818;15.224;2023-03-14T11:25:11;5.90;99.90
16160;DHT22;8185;57.818;15.224;2023-03-14T11:27:42;6.00;99.90
16160;DHT22;8185;57.818;15.224;2023-03-14T11:30:19;6.00;99.90
16160;DHT22;8185;57.818;15.224;2023-03-14T11:32:52;6.00;99.90
16160;DHT22;8185;57.818;15.224;2023-03-14T11:35:28;6.00;99.90
16160;DHT22;8185;57.818;15.224;2023-03-14T11:38:05;6.00;99.90
16160;DHT22;8185;57.818;15.224;2023-03-14T11:40:37;5.80;99.90
16160;DHT22;8185;57.818;15.224;2023-03-14T11:43:11;5.70;99.90
16160;DHT22;8185;57.818;15.224;2023-03-14T11:45:42;5.60;99.90
16160;DHT22;8185;57.818;15.224;2023-03-14T11:48:22;5.50;99.90
16160;DHT22;8185;57.818;15.224;2023-03-14T11:50:54;5.30;99.90
16160;DHT22;8185;57.818;15.224;2023-03-14T11:53:36;4.90;99.90
16160;DHT22;8185;57.818;15.224;2023-03-14T11:56:13;4.70;99.90
16160;DHT22;8185;57.818;15.224;2023-03-14T11:58:49;4.40;99.90
16160;DHT22;8185;57.818;15.224;2023-03-14T12:01:19;4.30;99.90
16160;DHT22;8185;57.818;15.224;2023-03-14T12:03:53;4.30;99.90
16160;DHT22;8185;57.818;15.224;2023-03-14T12:06:26;4.30;99.90
16160;DHT22;8185;57.818;15.224;2023-03-14T12:08:58;4.40;99.90
16160;DHT22;8185;57.818;15.224;2023-03-14T12:11:35;4.50;99.90
16160;DHT22;8185;57.818;15.224;2023-03-14T12:14:19;4.50;99.90
16160;DHT22;8185;57.818;15.224;2023-03-14T12:16:47;4.60;99.90
16160;DHT22;8185;57.818;15.224;2023-03-14T12:19:38;4.70;99.90
16160;DHT22;8185;57.818;15.224;2023-03-14T12:22:27;4.80;99.90
16160;DHT22;8185;57.818;15.224;2023-03-14T12:24:59;5.00;99.90
16160;DHT22;8185;57.818;15.224;2023-03-14T12:27:49;5.10;99.90
16160;DHT22;8185;57.818;15.224;2023-03-14T12:30:30;5.00;99.90
16160;DHT22;8185;57.818;15.224;2023-03-14T12:33:31;5.00;99.90
16160;DHT22;8185;57.818;15.224;2023-03-14T12:36:04;4.90;99.90
16160;DHT22;8185;57.818;15.224;2023-03-14T12:38:47;4.90;99.90
16160;DHT22;8185;57.818;15.224;2023-03-14T12:41:24;4.90;99.90
16160;DHT22;8185;57.818;15.224;2023-03-14T12:43:52;4.90;99.90
16160;DHT22;8185;57.818;15.224;2023-03-14T12:46:21;4.80;99.90
16160;DHT22;8185;57.818;15.224;2023-03-14T12:48:50;4.70;99.90
16160;DHT22;8185;57.818;15.224;2023-03-14T12:51:28;4.50;99.90
16160;DHT22;8185;57.818;15.224;2023-03-14T12:54:33;4.50;99.90
16160;DHT22;8185;57.818;15.224;2023-03-14T12:57:13;4.30;99.90
16160;DHT22;8185;57.818;15.224;2023-03-14T12:59:47;4.20;99.90
16160;DHT22;8185;57.818;15.224;2023-03-14T13:02:21;4.20;99.90
16160;DHT22;8185;57.818;15.224;2023-03-14T13:04:51;4.10;99.90
16160;DHT22;8185;57.818;15.224;2023-03-14T13:07:34;4.10;99.90
16160;DHT22;8185;57.818;15.224;2023-03-14T13:10:18;4.20;99.90
16160;DHT22;8185;57.818;15.224;2023-03-14T13:12:51;4.30;99.90
16160;DHT22;8185;57.818;15.224;2023-03-14T13:15:24;4.40;99.90
16160;DHT22;8185;57.818;15.224;2023-03-14T13:17:55;4.30;99.90
16160;DHT22;8185;57.818;15.224;2023-03-14T13:20:28;4.30;99.90
16160;DHT22;8185;57.818;15.224;2023-03-14T13:22:56;4.30;99.90
16160;DHT22;8185;57.818;15.224;2023-03-14T13:25:23;4.30;99.90
16160;DHT22;8185;57.818;15.224;2023-03-14T13:27:54;4.20;99.90
16160;DHT22;8185;57.818;15.224;2023-03-14T13:30:23;4.10;99.90
16160;DHT22;8185;57.818;15.224;2023-03-14T13:32:52;4.10;99.90
16160;DHT22;8185;57.818;15.224;2023-03-14T13:35:23;4.00;99.90
16160;DHT22;8185;57.818;15.224;2023-03-14T13:37:58;4.00;99.90
16160;DHT22;8185;57.818;15.224;2023-03-14T13:40:29;4.00;99.90
16160;DHT22;8185;57.818;15.224;2023-03-14T13:43:05;4.00;99.90
16160;DHT22;8185;57.818;15.224;2023-03-14T13:45:45;4.10;99.90
16160;DHT22;8185;57.818;15.224;2023-03-14T13:48:14;4.10;99.90
16160;DHT22;8185;57.818;15.224;2023-03-14T13:50:46;4.30;99.90
16160;DHT22;8185;57.818;15.224;2023-03-14T13:53:16;4.40;99.90
16160;DHT22;8185;57.818;15.224;2023-03-14T13:55:43;4.50;99.90
16160;DHT22;8185;57.818;15.224;2023-03-14T13:58:21;4.50;99.90
16160;DHT22;8185;57.818;15.224;2023-03-14T14:00:57;4.70;99.90
16160;DHT22;8185;57.818;15.224;2023-03-14T14:03:25;4.90;99.90
16160;DHT22;8185;57.818;15.224;2023-03-14T14:05:55;4.90;99.90
16160;DHT22;8185;57.818;15.224;2023-03-14T14:08:24;4.50;99.90
16160;DHT22;8185;57.818;15.224;2023-03-14T14:10:57;4.30;99.90
16160;DHT22;8185;57.818;15.224;2023-03-14T14:13:27;4.20;99.90
16160;DHT22;8185;57.818;15.224;2023-03-14T14:15:59;4.00;99.90
16160;DHT22;8185;57.818;15.224;2023-03-14T14:18:28;4.00;99.90
16160;DHT22;8185;57.818;15.224;2023-03-14T14:20:56;3.90;99.90
16160;DHT22;8185;57.818;15.224;2023-03-14T14:23:26;3.80;99.90
16160;DHT22;8185;57.818;15.224;2023-03-14T14:25:55;3.80;99.90
16160;DHT22;8185;57.818;15.224;2023-03-14T14:28:27;3.80;99.90
16160;DHT22;8185;57.818;15.224;2023-03-14T14:31:15;3.80;99.90
16160;DHT22;8185;57.818;15.224;2023-03-14T14:33:44;3.90;99.90
16160;DHT22;8185;57.818;15.224;2023-03-14T14:36:17;3.90;99.90
16160;DHT22;8185;57.818;15.224;2023-03-14T14:38:52;3.90;99.90
16160;DHT22;8185;57.818;15.224;2023-03-14T14:41:20;4.00;99.90
16160;DHT22;8185;57.818;15.224;2023-03-14T14:43:51;3.90;99.90
16160;DHT22;8185;57.818;15.224;2023-03-14T14:46:19;4.00;99.90
16160;DHT22;8185;57.818;15.224;2023-03-14T14:48:47;4.20;99.90
16160;DHT22;8185;57.818;15.224;2023-03-14T14:51:25;4.30;99.90
16160;DHT22;8185;57.818;15.224;2023-03-14T14:54:09;4.20;99.90
16160;DHT22;8185;57.818;15.224;2023-03-14T14:56:37;4.10;99.90
16160;DHT22;8185;57.818;15.224;2023-03-14T14:59:17;4.00;99.90
16160;DHT22;8185;57.818;15.224;2023-03-14T15:01:46;4.00;99.90
16160;DHT22;8185;57.818;15.224;2023-03-14T15:04:15;4.00;99.90
16160;DHT22;8185;57.818;15.224;2023-03-14T15:06:45;4.00;99.90
16160;DHT22;8185;57.818;15.224;2023-03-14T15:09:14;3.90;99.90
16160;DHT22;8185;57.818;15.224;2023-03-14T15:11:42;3.70;99.90
16160;DHT22;8185;57.818;15.224;2023-03-14T15:14:11;3.40;99.90
16160;DHT22;8185;57.818;15.224;2023-03-14T15:16:39;3.00;99.90
16160;DHT22;8185;57.818;15.224;2023-03-14T15:19:12;2.60;99.90
16160;DHT22;8185;57.818;15.224;2023-03-14T15:21:41;2.50;99.90
16160;DHT22;8185;57.818;15.224;2023-03-14T15:24:09;2.50;99.90
16160;DHT22;8185;57.818;15.224;2023-03-14T15:26:36;2.60;99.90
16160;DHT22;8185;57.818;15.224;2023-03-14T15:29:04;2.50;99.90
16160;DHT22;8185;57.818;15.224;2023-03-14T15:31:35;2.50;99.90
16160;DHT22;8185;57.818;15.224;2023-03-14T15:34:02;2.60;99.90
16160;DHT22;8185;57.818;15.224;2023-03-14T15:36:31;2.60;99.90
16160;DHT22;8185;57.818;15.224;2023-03-14T15:38:59;2.50;99.90
16160;DHT22;8185;57.818;15.224;2023-03-14T15:41:27;2.50;99.90
16160;DHT22;8185;57.818;15.224;2023-03-14T15:43:54;2.50;99.90
16160;DHT22;8185;57.818;15.224;2023-03-14T15:46:22;2.50;99.90
16160;DHT22;8185;57.818;15.224;2023-03-14T15:48:51;2.40;99.90
16160;DHT22;8185;57.818;15.224;2023-03-14T15:51:19;2.50;99.90
16160;DHT22;8185;57.818;15.224;2023-03-14T15:53:46;2.50;99.90
16160;DHT22;8185;57.818;15.224;2023-03-14T15:56:14;2.50;99.90
16160;DHT22;8185;57.818;15.224;2023-03-14T15:58:42;2.50;99.90
16160;DHT22;8185;57.818;15.224;2023-03-14T16:01:13;2.50;99.90
16160;DHT22;8185;57.818;15.224;2023-03-14T16:03:41;2.50;99.90